Time;durP1;ratioP1;P1;durP2;ratioP2;P2;SDS_P1;SDS_P2;PMS_P1;PMS_P2;Temp;Humidity;BMP_temperature;BMP_pressure;BME280_temperature;BME280_humidity;BME280_pressure;Samples;Min_cycle;Max_cycle;Signal;HPM_P1;HPM_P2
2023/07/03 00:02:16;;;;;;;;;27.50;26.75;26.70;52.50;;;;;;111529;1237;53950;-60
2023/07/03 00:04:45;;;;;;;;;22.67;21.67;26.70;52.50;;;;;;111175;1243;44472;-60
2023/07/03 00:07:16;;;;;;;;;28.25;26.50;26.70;52.50;;;;;;111336;1242;49681;-60
2023/07/03 00:09:44;;;;;;;;;27.50;25.00;26.70;52.50;;;;;;111349;1243;49645;-59
2023/07/03 00:12:11;;;;;;;;;25.25;24.25;26.70;52.50;;;;;;111466;1241;53505;-61
2023/07/03 00:14:38;;;;;;;;;25.67;25.33;26.80;52.60;;;;;;111331;1242;44775;-60
2023/07/03 00:17:09;;;;;;;;;25.50;23.50;26.70;52.70;;;;;;111404;1237;49559;-61
2023/07/03 00:19:36;;;;;;;;;25.00;24.33;26.70;52.50;;;;;;111497;1245;49169;-60
2023/07/03 00:22:03;;;;;;;;;24.00;22.50;26.70;52.60;;;;;;111333;1237;54746;-60
2023/07/03 00:24:31;;;;;;;;;24.33;23.00;26.70;52.50;;;;;;111162;1239;44649;-60
2023/07/03 00:26:59;;;;;;;;;25.75;24.25;26.70;52.70;;;;;;111344;1240;49090;-60
2023/07/03 00:29:31;;;;;;;;;25.75;24.00;26.70;52.60;;;;;;111291;1243;49037;-61
2023/07/03 00:31:58;;;;;;;;;25.00;23.00;26.70;52.50;;;;;;111448;1238;54182;-61
2023/07/03 00:34:26;;;;;;;;;24.00;23.00;26.70;52.50;;;;;;111282;1237;45204;-61
2023/07/03 00:36:54;;;;;;;;;21.75;21.00;26.70;52.50;;;;;;111395;1238;50496;-60
2023/07/03 00:39:21;;;;;;;;;23.75;22.25;26.70;52.50;;;;;;111515;1243;49502;-60
2023/07/03 00:41:48;;;;;;;;;29.50;27.50;26.70;52.50;;;;;;111380;1242;54670;-68
2023/07/03 00:44:17;;;;;;;;;24.00;23.25;26.60;52.50;;;;;;111292;1242;44133;-61
2023/07/03 00:46:47;;;;;;;;;25.00;24.33;26.60;52.50;;;;;;111295;1242;49423;-60
2023/07/03 00:49:14;;;;;;;;;22.00;21.67;26.70;52.80;;;;;;111299;1243;50095;-61
2023/07/03 00:51:44;;;;;;;;;25.25;23.25;26.60;52.50;;;;;;111393;1238;53414;-60
2023/07/03 00:54:12;;;;;;;;;26.25;24.25;26.60;52.50;;;;;;111317;1237;44568;-60
2023/07/03 00:56:39;;;;;;;;;25.75;22.50;26.60;52.50;;;;;;111216;1238;51025;-60
2023/07/03 00:59:07;;;;;;;;;22.00;20.75;26.70;52.50;;;;;;111506;1242;49917;-61
2023/07/03 01:01:53;;;;;;;;;26.00;24.00;26.70;52.70;;;;;;111287;1244;53561;-60
2023/07/03 01:04:25;;;;;;;;;24.50;24.00;26.60;52.50;;;;;;111336;1237;44944;-60
2023/07/03 01:07:07;;;;;;;;;25.75;24.00;26.60;52.50;;;;;;111328;1237;49620;-61
2023/07/03 01:09:45;;;;;;;;;25.33;23.33;26.60;52.50;;;;;;111273;1240;49220;-61
2023/07/03 01:12:12;;;;;;;;;22.00;21.25;26.60;52.70;;;;;;111420;1243;54051;-60
2023/07/03 01:14:41;;;;;;;;;20.00;19.00;26.60;52.40;;;;;;111302;1240;44964;-61
2023/07/03 01:17:09;;;;;;;;;24.00;23.75;26.60;52.40;;;;;;111243;1243;49683;-61
2023/07/03 01:19:39;;;;;;;;;24.00;23.25;26.60;52.40;;;;;;111281;1243;50048;-61
2023/07/03 01:22:36;;;;;;;;;22.75;22.25;26.60;52.40;;;;;;111671;1243;54214;-65
2023/07/03 01:25:10;;;;;;;;;21.25;19.75;26.60;52.60;;;;;;111279;1238;45180;-61
2023/07/03 01:27:40;;;;;;;;;22.25;22.25;26.60;52.60;;;;;;111381;1242;48977;-61
2023/07/03 01:30:12;;;;;;;;;25.00;24.00;26.60;52.40;;;;;;111426;1238;49207;-61
2023/07/03 01:32:39;;;;;;;;;25.00;23.00;26.70;52.40;;;;;;111266;1244;54713;-60
2023/07/03 01:35:08;;;;;;;;;22.00;21.00;26.60;52.30;;;;;;111085;1243;44730;-63
2023/07/03 01:37:40;;;;;;;;;23.75;21.25;26.60;52.30;;;;;;111383;1239;49503;-61
2023/07/03 01:40:10;;;;;;;;;22.25;20.75;26.60;52.30;;;;;;111454;1242;49324;-61
2023/07/03 01:42:40;;;;;;;;;23.33;22.33;26.60;52.30;;;;;;111274;1240;53798;-60
2023/07/03 01:45:09;;;;;;;;;22.00;21.25;26.60;52.40;;;;;;111064;1239;44391;-60
2023/07/03 01:47:37;;;;;;;;;23.00;22.00;26.60;52.40;;;;;;111497;1237;49500;-62
2023/07/03 01:50:06;;;;;;;;;22.50;20.75;26.60;52.40;;;;;;111411;1243;50131;-61
2023/07/03 01:52:37;;;;;;;;;22.00;20.25;26.60;52.40;;;;;;111495;1242;54196;-60
2023/07/03 01:55:10;;;;;;;;;22.00;20.67;26.60;52.40;;;;;;111289;1242;44934;-61
2023/07/03 01:58:15;;;;;;;;;21.33;21.00;26.50;52.60;;;;;;111385;1242;49257;-60
2023/07/03 02:00:50;;;;;;;;;22.00;20.25;26.50;52.40;;;;;;111040;1243;50558;-60
2023/07/03 02:03:30;;;;;;;;;23.00;21.00;26.50;52.30;;;;;;111323;1243;53996;-60
2023/07/03 02:06:02;;;;;;;;;23.25;21.25;26.60;52.40;;;;;;111293;1239;45498;-61
2023/07/03 02:08:30;;;;;;;;;23.25;21.50;26.60;52.40;;;;;;111328;1240;50608;-60
2023/07/03 02:10:57;;;;;;;;;24.00;22.25;26.60;52.30;;;;;;111559;1242;49179;-61
2023/07/03 02:13:24;;;;;;;;;22.00;21.50;26.50;52.50;;;;;;111422;1242;53967;-61
2023/07/03 02:15:51;;;;;;;;;24.67;23.00;26.50;51.90;;;;;;111116;1242;44787;-61
2023/07/03 02:18:20;;;;;;;;;24.00;22.00;26.50;52.40;;;;;;111312;1243;49446;-61
2023/07/03 02:20:51;;;;;;;;;23.33;21.67;26.50;52.40;;;;;;111295;1244;50668;-60
2023/07/03 02:23:18;;;;;;;;;23.00;20.50;26.50;52.30;;;;;;111529;1237;54206;-61
2023/07/03 02:25:45;;;;;;;;;21.75;20.50;26.50;52.40;;;;;;111235;1242;44978;-60
2023/07/03 02:28:12;;;;;;;;;22.33;20.67;26.50;52.40;;;;;;111354;1238;49475;-60
2023/07/03 02:30:40;;;;;;;;;24.75;22.50;26.50;52.60;;;;;;111275;1242;50316;-60
2023/07/03 02:33:07;;;;;;;;;21.00;19.00;26.50;52.40;;;;;;111367;1243;53428;-60
2023/07/03 02:35:35;;;;;;;;;22.00;21.50;26.50;52.70;;;;;;111256;1242;44332;-63
2023/07/03 02:38:02;;;;;;;;;21.33;19.00;26.50;52.50;;;;;;111289;1240;49595;-61
2023/07/03 02:40:29;;;;;;;;;20.00;19.00;26.50;52.40;;;;;;111308;1243;49883;-60
2023/07/03 02:42:57;;;;;;;;;23.50;21.00;26.50;52.40;;;;;;111434;1237;54013;-62
2023/07/03 02:45:24;;;;;;;;;22.75;21.50;26.50;52.50;;;;;;111142;1243;44591;-60
2023/07/03 02:47:51;;;;;;;;;21.00;21.00;26.50;52.50;;;;;;111428;1242;49869;-60
2023/07/03 02:50:18;;;;;;;;;25.00;22.00;26.50;52.50;;;;;;111407;1238;50333;-60
2023/07/03 02:52:44;;;;;;;;;23.50;22.00;26.40;52.40;;;;;;111250;1243;54264;-60
2023/07/03 02:55:12;;;;;;;;;18.00;17.50;26.40;52.40;;;;;;111179;1241;44333;-62
2023/07/03 02:57:39;;;;;;;;;21.00;20.33;26.40;52.40;;;;;;111304;1240;50334;-61
2023/07/03 03:00:07;;;;;;;;;20.75;19.75;26.40;52.40;;;;;;111360;1237;50274;-61
2023/07/03 03:02:33;;;;;;;;;21.75;20.75;26.40;52.40;;;;;;111260;1238;54410;-59
2023/07/03 03:05:00;;;;;;;;;22.25;21.00;26.50;52.60;;;;;;111145;1237;45217;-60
2023/07/03 03:07:27;;;;;;;;;19.50;19.25;26.40;52.40;;;;;;111447;1237;49919;-60
2023/07/03 03:09:54;;;;;;;;;21.00;20.00;26.40;52.40;;;;;;111405;1237;50842;-59
2023/07/03 03:12:21;;;;;;;;;20.00;19.33;26.40;52.40;;;;;;111247;1239;53662;-65
2023/07/03 03:14:48;;;;;;;;;27.00;25.00;26.40;52.60;;;;;;111137;1240;44340;-61
2023/07/03 03:17:15;;;;;;;;;23.00;21.00;26.40;52.40;;;;;;111385;1237;49994;-61
2023/07/03 03:19:43;;;;;;;;;21.75;20.00;26.40;52.60;;;;;;111411;1242;48925;-61
2023/07/03 03:22:10;;;;;;;;;23.33;21.33;26.40;52.40;;;;;;111280;1244;53791;-61
2023/07/03 03:24:36;;;;;;;;;25.25;21.25;26.40;52.40;;;;;;111165;1242;44365;-61
2023/07/03 03:27:06;;;;;;;;;20.75;20.00;26.40;52.40;;;;;;111428;1238;49906;-60
2023/07/03 03:29:34;;;;;;;;;22.00;21.00;26.40;52.40;;;;;;111460;1237;49111;-60
2023/07/03 03:32:02;;;;;;;;;21.00;20.00;26.40;52.40;;;;;;111275;1242;53642;-60
2023/07/03 03:34:29;;;;;;;;;20.25;18.25;26.40;52.80;;;;;;111067;1239;44974;-61
2023/07/03 03:36:56;;;;;;;;;19.25;18.75;26.40;52.30;;;;;;111324;1243;48832;-61
2023/07/03 03:39:23;;;;;;;;;18.75;18.25;26.50;52.30;;;;;;111240;1243;49255;-59
2023/07/03 03:41:50;;;;;;;;;21.67;20.67;26.40;52.20;;;;;;111247;1238;53585;-60
2023/07/03 03:44:16;;;;;;;;;20.00;19.00;26.40;52.50;;;;;;111244;1238;44741;-61
2023/07/03 03:46:43;;;;;;;;;22.33;20.00;26.40;52.20;;;;;;111157;1243;49120;-59
2023/07/03 03:49:10;;;;;;;;;23.25;22.75;26.40;52.20;;;;;;111396;1237;49645;-60
2023/07/03 03:51:37;;;;;;;;;19.00;18.50;26.50;52.50;;;;;;111222;1238;54310;-60
2023/07/03 03:54:04;;;;;;;;;21.00;20.00;26.40;52.20;;;;;;111387;1242;44581;-60
2023/07/03 03:56:31;;;;;;;;;18.00;17.00;26.40;52.50;;;;;;111221;1238;49253;-60
2023/07/03 03:58:58;;;;;;;;;22.75;22.25;26.50;52.30;;;;;;111384;1242;49602;-60
2023/07/03 04:01:25;;;;;;;;;19.00;19.00;26.40;52.20;;;;;;111384;1243;53723;-61
2023/07/03 04:03:52;;;;;;;;;21.00;19.00;26.40;52.50;;;;;;111437;1242;44725;-59
2023/07/03 04:06:19;;;;;;;;;22.00;21.00;26.40;53.20;;;;;;111546;1242;49340;-64
2023/07/03 04:08:46;;;;;;;;;23.75;22.75;26.50;53.70;;;;;;111828;1237;49167;-60
2023/07/03 04:11:13;;;;;;;;;21.67;21.00;26.50;54.40;;;;;;111737;1237;54648;-60
2023/07/03 04:13:40;;;;;;;;;22.25;20.00;26.50;54.40;;;;;;111705;1238;44922;-59
2023/07/03 04:16:08;;;;;;;;;21.00;20.50;26.50;53.90;;;;;;111490;1238;50225;-59
2023/07/03 04:18:35;;;;;;;;;21.00;19.00;26.50;53.80;;;;;;111220;1243;49008;-62
2023/07/03 04:21:02;;;;;;;;;23.00;20.25;26.60;53.80;;;;;;111558;1238;55103;-59
2023/07/03 04:23:29;;;;;;;;;20.00;19.00;26.60;53.40;;;;;;111433;1243;44933;-62
2023/07/03 04:25:56;;;;;;;;;22.25;20.50;26.60;53.50;;;;;;111186;1237;49484;-59
2023/07/03 04:28:24;;;;;;;;;21.25;20.00;26.60;53.60;;;;;;111326;1243;50553;-59
2023/07/03 04:30:51;;;;;;;;;20.75;18.75;26.60;53.70;;;;;;111278;1243;53754;-60
2023/07/03 04:33:18;;;;;;;;;66.00;45.00;26.60;53.50;;;;;;111353;1243;44857;-62
2023/07/03 04:35:46;;;;;;;;;48.50;38.25;26.60;53.70;;;;;;111283;1243;49705;-62
2023/07/03 04:38:17;;;;;;;;;49.00;38.33;26.70;53.90;;;;;;111545;1238;49858;-64
2023/07/03 04:40:45;;;;;;;;;44.00;36.00;26.70;53.90;;;;;;111430;1240;54403;-65
2023/07/03 04:43:12;;;;;;;;;41.25;32.50;26.70;53.80;;;;;;111529;1242;44504;-61
2023/07/03 04:45:44;;;;;;;;;41.75;32.00;26.80;53.70;;;;;;111355;1237;49574;-60
2023/07/03 04:48:12;;;;;;;;;34.00;28.50;26.80;53.60;;;;;;111527;1241;49801;-61
2023/07/03 04:50:39;;;;;;;;;37.00;28.00;26.80;53.70;;;;;;111553;1238;53363;-65
2023/07/03 04:53:06;;;;;;;;;31.25;27.00;26.80;53.70;;;;;;111733;1237;44988;-62
2023/07/03 04:55:34;;;;;;;;;28.50;23.25;26.90;53.80;;;;;;111378;1244;49723;-60
2023/07/03 04:58:02;;;;;;;;;29.33;24.00;26.90;53.80;;;;;;111561;1238;50241;-61
2023/07/03 05:00:29;;;;;;;;;31.00;24.50;26.90;53.80;;;;;;111361;1243;54927;-62
2023/07/03 05:02:58;;;;;;;;;25.75;22.00;27.00;54.20;;;;;;111449;1242;44683;-60
2023/07/03 05:05:26;;;;;;;;;30.00;25.50;27.00;53.70;;;;;;111193;1239;49738;-59
2023/07/03 05:07:53;;;;;;;;;42.75;32.25;27.00;53.70;;;;;;111476;1237;49424;-60
2023/07/03 05:10:22;;;;;;;;;38.75;29.00;27.00;53.60;;;;;;111428;1237;54305;-60
2023/07/03 05:12:50;;;;;;;;;36.25;29.50;27.00;53.50;;;;;;111409;1242;44377;-60
2023/07/03 05:15:19;;;;;;;;;29.25;26.25;27.00;53.40;;;;;;111460;1242;49220;-61
2023/07/03 05:17:54;;;;;;;;;29.00;26.00;27.10;53.40;;;;;;111494;1237;49105;-61
2023/07/03 05:20:25;;;;;;;;;29.00;25.75;27.10;53.60;;;;;;111461;1242;54813;-60
2023/07/03 05:22:52;;;;;;;;;27.00;23.25;27.10;53.30;;;;;;111400;1242;44754;-60
2023/07/03 05:25:19;;;;;;;;;27.00;23.00;27.10;53.30;;;;;;111310;1238;50201;-59
2023/07/03 05:27:47;;;;;;;;;29.75;25.75;27.10;53.30;;;;;;111472;1237;49984;-60
2023/07/03 05:30:14;;;;;;;;;27.25;22.75;27.10;53.80;;;;;;111524;1242;54488;-60
2023/07/03 05:32:42;;;;;;;;;26.00;24.25;27.10;53.20;;;;;;111439;1243;44805;-60
2023/07/03 05:35:10;;;;;;;;;31.67;26.33;27.10;53.30;;;;;;111474;1238;50003;-60
2023/07/03 05:37:37;;;;;;;;;27.50;25.75;27.00;53.40;;;;;;111500;1238;49722;-59
2023/07/03 05:40:06;;;;;;;;;26.50;23.75;27.10;53.20;;;;;;111502;1240;53344;-57
2023/07/03 05:42:34;;;;;;;;;29.00;25.00;27.10;53.30;;;;;;111530;1244;44511;-59
2023/07/03 05:45:03;;;;;;;;;26.75;24.00;27.10;53.30;;;;;;111485;1243;49768;-59
2023/07/03 05:47:30;;;;;;;;;22.50;21.00;27.10;53.30;;;;;;111403;1243;49391;-59
2023/07/03 05:49:57;;;;;;;;;25.25;23.25;27.10;53.30;;;;;;111448;1243;54884;-59
2023/07/03 05:52:24;;;;;;;;;25.25;22.50;27.00;53.20;;;;;;111477;1237;45368;-59
2023/07/03 05:54:52;;;;;;;;;21.00;20.33;27.00;53.30;;;;;;111511;1243;49761;-58
2023/07/03 05:57:20;;;;;;;;;21.75;21.00;27.00;53.30;;;;;;111473;1237;49540;-59
2023/07/03 05:59:48;;;;;;;;;21.00;20.00;27.00;53.50;;;;;;111535;1243;53315;-59
2023/07/03 06:02:15;;;;;;;;;25.75;24.00;27.00;53.30;;;;;;111499;1238;44202;-59
2023/07/03 06:04:42;;;;;;;;;23.00;22.00;27.00;53.40;;;;;;111498;1238;50084;-58
2023/07/03 06:07:10;;;;;;;;;24.67;22.67;27.10;53.40;;;;;;111466;1237;49149;-58
2023/07/03 06:09:37;;;;;;;;;20.00;19.00;27.00;53.40;;;;;;111546;1237;53727;-65
2023/07/03 06:12:05;;;;;;;;;22.33;20.33;27.00;53.40;;;;;;111475;1237;44310;-58
2023/07/03 06:14:32;;;;;;;;;20.00;19.00;27.00;53.60;;;;;;111420;1242;49665;-59
2023/07/03 06:16:59;;;;;;;;;20.50;19.50;27.00;53.40;;;;;;111364;1242;49893;-58
2023/07/03 06:19:27;;;;;;;;;23.00;20.75;27.00;53.30;;;;;;111419;1242;53949;-60
2023/07/03 06:21:54;;;;;;;;;19.25;18.50;27.10;53.40;;;;;;111465;1242;45629;-60
2023/07/03 06:24:22;;;;;;;;;23.00;21.33;27.10;53.40;;;;;;111484;1242;49539;-59
2023/07/03 06:26:50;;;;;;;;;22.25;20.75;27.00;53.30;;;;;;111503;1244;49070;-59
2023/07/03 06:29:17;;;;;;;;;24.50;23.25;27.10;53.40;;;;;;111437;1243;54676;-58
2023/07/03 06:31:44;;;;;;;;;24.00;20.00;27.10;53.30;;;;;;111469;1242;44588;-60
2023/07/03 06:34:11;;;;;;;;;20.75;20.00;27.10;53.50;;;;;;111484;1242;48984;-58
2023/07/03 06:36:38;;;;;;;;;25.33;21.33;27.10;53.20;;;;;;111367;1243;50264;-59
2023/07/03 06:39:07;;;;;;;;;21.00;19.75;27.10;53.20;;;;;;111500;1242;54145;-59
2023/07/03 06:41:35;;;;;;;;;19.00;18.33;27.10;53.40;;;;;;111506;1237;44348;-59
2023/07/03 06:44:04;;;;;;;;;22.50;19.75;27.10;53.40;;;;;;111519;1237;49509;-60
2023/07/03 06:46:31;;;;;;;;;21.00;19.00;27.10;53.10;;;;;;111463;1237;49688;-59
2023/07/03 06:48:58;;;;;;;;;20.50;18.50;27.20;53.30;;;;;;111462;1242;53455;-58
2023/07/03 06:51:25;;;;;;;;;19.75;19.00;27.10;53.10;;;;;;111394;1238;44868;-59
2023/07/03 06:53:53;;;;;;;;;19.75;19.00;27.10;53.10;;;;;;111459;1238;49496;-58
2023/07/03 06:56:20;;;;;;;;;20.50;19.25;27.20;53.20;;;;;;111474;1237;49355;-58
2023/07/03 06:58:48;;;;;;;;;22.00;20.00;27.20;53.40;;;;;;111400;1237;54138;-60
2023/07/03 07:01:18;;;;;;;;;19.00;18.75;27.20;53.40;;;;;;111496;1238;45677;-60
2023/07/03 07:03:45;;;;;;;;;19.00;18.75;27.20;53.40;;;;;;111431;1242;48923;-59
2023/07/03 07:06:15;;;;;;;;;20.00;19.00;27.20;53.20;;;;;;111454;1238;48853;-59
2023/07/03 07:08:43;;;;;;;;;20.00;19.25;27.30;53.70;;;;;;111453;1238;53181;-59
2023/07/03 07:11:15;;;;;;;;;21.00;20.00;27.30;53.30;;;;;;111437;1244;44339;-59
2023/07/03 07:13:44;;;;;;;;;19.00;18.33;27.30;53.20;;;;;;111527;1238;49940;-60
2023/07/03 07:16:19;;;;;;;;;21.00;20.67;27.30;53.30;;;;;;111531;1239;49761;-59
2023/07/03 07:18:51;;;;;;;;;21.00;19.50;27.30;53.50;;;;;;111501;1243;54538;-61
2023/07/03 07:21:18;;;;;;;;;18.00;16.75;27.40;53.60;;;;;;111456;1243;44785;-60
2023/07/03 07:23:50;;;;;;;;;20.75;19.25;27.40;54.00;;;;;;111519;1237;49034;-60
2023/07/03 07:26:18;;;;;;;;;20.00;18.75;27.40;53.60;;;;;;111549;1237;49370;-60
2023/07/03 07:28:45;;;;;;;;;21.00;18.00;27.40;53.50;;;;;;111600;1237;53100;-63
2023/07/03 07:31:18;;;;;;;;;19.00;17.50;27.50;53.60;;;;;;111511;1237;45414;-60
2023/07/03 07:33:45;;;;;;;;;22.00;18.50;27.50;53.50;;;;;;111564;1237;50083;-60
2023/07/03 07:36:14;;;;;;;;;17.25;17.00;27.50;53.60;;;;;;111599;1237;49738;-60
2023/07/03 07:38:42;;;;;;;;;21.00;19.00;27.60;53.50;;;;;;111571;1242;54136;-61
2023/07/03 07:41:09;;;;;;;;;19.25;18.25;27.60;53.50;;;;;;111588;1238;45665;-61
2023/07/03 07:43:36;;;;;;;;;19.25;18.75;27.70;54.00;;;;;;111509;1243;49365;-63
2023/07/03 07:46:03;;;;;;;;;20.25;18.75;27.70;53.30;;;;;;111372;1238;50552;-61
2023/07/03 07:48:31;;;;;;;;;22.00;19.50;27.70;53.40;;;;;;111523;1238;53538;-63
2023/07/03 07:50:58;;;;;;;;;19.75;18.25;27.80;53.40;;;;;;111524;1237;45365;-62
2023/07/03 07:53:26;;;;;;;;;18.75;17.75;27.80;53.20;;;;;;111478;1237;49908;-61
2023/07/03 07:55:55;;;;;;;;;20.00;19.00;27.80;53.30;;;;;;111521;1242;49294;-61
2023/07/03 07:58:24;;;;;;;;;19.50;18.00;27.90;53.80;;;;;;111375;1240;54454;-62
2023/07/03 08:00:53;;;;;;;;;21.00;18.25;27.90;53.50;;;;;;111411;1238;44646;-63
2023/07/03 08:03:20;;;;;;;;;17.25;16.00;27.90;53.20;;;;;;111458;1242;48998;-61
2023/07/03 08:05:47;;;;;;;;;21.00;19.00;27.90;53.20;;;;;;111576;1237;49291;-61
2023/07/03 08:08:13;;;;;;;;;20.00;18.25;28.00;53.20;;;;;;110496;1239;1309465;-60
2023/07/03 08:10:41;;;;;;;;;19.50;17.50;28.00;53.10;;;;;;111506;1242;44583;-58
2023/07/03 08:13:07;;;;;;;;;18.00;17.33;28.00;53.10;;;;;;111551;1237;49437;-58
2023/07/03 08:15:35;;;;;;;;;19.75;19.00;28.10;53.30;;;;;;111415;1238;49464;-59
2023/07/03 08:18:03;;;;;;;;;19.75;18.50;28.10;53.00;;;;;;111357;1242;55068;-60
2023/07/03 08:20:30;;;;;;;;;20.00;19.00;28.10;52.90;;;;;;111413;1239;44616;-59
2023/07/03 08:22:57;;;;;;;;;21.33;20.00;28.20;52.90;;;;;;111515;1239;49522;-74
2023/07/03 08:25:24;;;;;;;;;18.50;17.25;28.20;52.90;;;;;;111932;1243;48895;-73
2023/07/03 08:27:51;;;;;;;;;20.00;18.00;28.20;52.90;;;;;;111482;1244;53538;-76
2023/07/03 08:30:18;;;;;;;;;18.50;17.75;28.20;52.80;;;;;;111391;1237;44560;-59
2023/07/03 08:32:45;;;;;;;;;17.50;16.75;28.30;52.60;;;;;;111492;1243;49722;-59
2023/07/03 08:35:11;;;;;;;;;18.00;17.67;28.30;52.70;;;;;;111618;1242;49609;-59
2023/07/03 08:37:38;;;;;;;;;18.00;18.00;28.30;52.30;;;;;;111536;1237;53429;-60
2023/07/03 08:40:07;;;;;;;;;16.00;15.00;28.40;52.50;;;;;;111523;1237;44297;-60
2023/07/03 08:42:41;;;;;;;;;19.50;16.75;28.40;51.80;;;;;;111418;1237;48722;-59
2023/07/03 08:45:12;;;;;;;;;22.00;18.75;28.40;51.90;;;;;;111574;1237;49365;-59
2023/07/03 08:47:39;;;;;;;;;21.75;18.50;28.40;51.50;;;;;;111346;1241;55064;-62
2023/07/03 08:50:07;;;;;;;;;16.33;15.00;28.40;51.40;;;;;;111579;1239;44117;-61
2023/07/03 08:52:42;;;;;;;;;17.33;16.33;28.50;51.50;;;;;;111517;1243;49796;-60
2023/07/03 08:55:13;;;;;;;;;16.00;15.00;28.50;51.80;;;;;;111635;1237;50269;-60
2023/07/03 08:57:40;;;;;;;;;17.00;15.25;28.50;51.90;;;;;;111497;1238;53785;-59
2023/07/03 09:00:11;;;;;;;;;17.00;15.75;28.50;51.80;;;;;;111456;1243;44691;-60
2023/07/03 09:02:50;;;;;;;;;18.00;17.00;28.60;51.30;;;;;;111534;1237;49639;-59
2023/07/03 09:05:49;;;;;;;;;20.75;19.50;28.60;51.80;;;;;;111548;1242;49182;-61
2023/07/03 09:08:43;;;;;;;;;18.00;17.75;28.50;51.50;;;;;;111174;1243;53539;-61
2023/07/03 09:11:10;;;;;;;;;17.50;16.25;28.60;51.50;;;;;;111421;1238;44297;-59
2023/07/03 09:13:46;;;;;;;;;16.25;15.25;28.60;51.70;;;;;;111258;1240;50222;-60
2023/07/03 09:16:18;;;;;;;;;17.50;17.00;28.60;51.80;;;;;;111506;1238;49567;-60
2023/07/03 09:18:56;;;;;;;;;18.25;17.00;28.60;52.20;;;;;;111524;1238;54305;-60
2023/07/03 09:21:24;;;;;;;;;19.00;18.00;28.60;52.00;;;;;;111479;1243;45063;-60
2023/07/03 09:23:59;;;;;;;;;16.25;15.50;28.60;52.10;;;;;;111531;1242;49137;-59
2023/07/03 09:26:36;;;;;;;;;16.00;15.00;28.60;51.90;;;;;;111517;1243;49279;-60
2023/07/03 09:29:03;;;;;;;;;16.00;15.00;28.60;51.80;;;;;;111572;1238;53728;-61
2023/07/03 09:31:30;;;;;;;;;19.00;16.00;28.60;51.50;;;;;;111521;1237;44750;-60
2023/07/03 09:33:57;;;;;;;;;18.00;17.00;28.60;51.80;;;;;;111410;1243;50435;-61
2023/07/03 09:36:29;;;;;;;;;20.00;19.00;28.60;51.80;;;;;;111893;1243;50298;-59
2023/07/03 09:38:56;;;;;;;;;18.25;17.25;28.60;51.90;;;;;;111539;1237;53432;-62
2023/07/03 09:41:26;;;;;;;;;16.00;15.00;28.60;51.90;;;;;;111475;1242;44358;-59
2023/07/03 09:43:53;;;;;;;;;16.25;15.00;28.60;52.10;;;;;;111559;1237;49238;-61
2023/07/03 09:46:21;;;;;;;;;18.00;16.00;28.60;51.70;;;;;;111503;1242;49741;-59
2023/07/03 09:48:48;;;;;;;;;15.00;14.25;28.70;51.60;;;;;;111600;1238;53960;-60
2023/07/03 09:51:27;;;;;;;;;16.75;16.00;28.70;51.70;;;;;;111515;1242;44404;-61
2023/07/03 09:53:56;;;;;;;;;16.00;15.00;28.70;52.00;;;;;;111589;1238;48889;-60
2023/07/03 09:56:25;;;;;;;;;16.00;15.00;28.70;52.00;;;;;;111554;1243;49611;-60
2023/07/03 09:58:55;;;;;;;;;16.25;15.25;28.70;52.00;;;;;;111548;1238;53685;-60
2023/07/03 10:01:26;;;;;;;;;18.50;16.00;28.70;51.60;;;;;;111508;1238;45199;-61
2023/07/03 10:04:05;;;;;;;;;15.50;14.50;28.70;51.50;;;;;;111595;1238;49310;-60
2023/07/03 10:06:32;;;;;;;;;16.50;15.75;28.70;51.70;;;;;;111493;1238;49029;-60
2023/07/03 10:09:09;;;;;;;;;20.00;18.50;28.70;51.30;;;;;;111485;1237;54402;-60
2023/07/03 10:11:43;;;;;;;;;15.50;15.25;28.70;51.30;;;;;;111455;1238;45337;-59
2023/07/03 10:14:16;;;;;;;;;16.00;16.00;28.80;51.30;;;;;;111415;1238;49543;-60
2023/07/03 10:16:44;;;;;;;;;14.25;13.25;28.80;51.30;;;;;;111278;1240;49883;-61
2023/07/03 10:19:10;;;;;;;;;15.00;14.75;28.90;51.20;;;;;;111530;1242;54294;-58
2023/07/03 10:21:39;;;;;;;;;17.00;16.33;28.90;51.40;;;;;;111331;1241;44998;-61
2023/07/03 10:24:07;;;;;;;;;14.00;13.75;28.90;51.50;;;;;;111508;1243;48882;-59
2023/07/03 10:26:42;;;;;;;;;16.00;15.25;28.90;51.60;;;;;;111303;1239;50004;-61
2023/07/03 10:29:16;;;;;;;;;16.25;14.50;28.90;51.70;;;;;;111470;1239;54503;-60
2023/07/03 10:31:50;;;;;;;;;16.00;15.25;28.90;51.70;;;;;;111509;1237;44652;-61
2023/07/03 10:34:33;;;;;;;;;16.67;14.33;28.90;51.60;;;;;;111587;1243;49735;-61
2023/07/03 10:37:02;;;;;;;;;14.75;14.00;29.00;51.90;;;;;;111557;1243;49599;-62
2023/07/03 10:39:41;;;;;;;;;15.00;14.00;29.00;51.90;;;;;;111369;1244;54203;-62
2023/07/03 10:42:18;;;;;;;;;17.00;15.00;29.00;51.80;;;;;;111563;1238;45377;-59
2023/07/03 10:44:45;;;;;;;;;15.25;13.50;29.10;51.80;;;;;;111624;1237;49923;-60
2023/07/03 10:47:23;;;;;;;;;15.33;14.00;29.00;51.80;;;;;;111314;1241;49242;-60
2023/07/03 10:49:51;;;;;;;;;14.00;13.00;29.10;51.80;;;;;;111537;1237;53867;-59
2023/07/03 10:52:25;;;;;;;;;15.00;13.00;29.10;52.10;;;;;;111540;1244;44996;-59
2023/07/03 10:55:10;;;;;;;;;16.00;15.00;29.10;52.30;;;;;;111578;1243;48831;-61
2023/07/03 10:57:44;;;;;;;;;17.00;16.00;29.00;52.00;;;;;;111446;1238;49042;-59
2023/07/03 11:00:31;;;;;;;;;16.00;15.33;29.10;52.20;;;;;;111513;1238;54059;-60
2023/07/03 11:03:21;;;;;;;;;18.00;17.00;29.10;52.00;;;;;;111267;1238;45501;-59
2023/07/03 11:05:54;;;;;;;;;15.25;15.00;29.10;52.00;;;;;;111585;1237;50414;-59
2023/07/03 11:08:27;;;;;;;;;15.67;14.67;29.10;52.10;;;;;;111307;1243;49994;-62
2023/07/03 11:11:07;;;;;;;;;16.00;14.00;29.10;52.10;;;;;;111476;1243;54556;-61
2023/07/03 11:14:16;;;;;;;;;15.50;15.00;29.10;52.10;;;;;;111464;1242;44329;-61
2023/07/03 11:16:56;;;;;;;;;15.00;14.00;29.10;52.20;;;;;;111485;1243;49362;-61
2023/07/03 11:19:48;;;;;;;;;19.00;17.00;29.10;52.20;;;;;;111419;1243;50427;-61
2023/07/03 11:22:21;;;;;;;;;17.00;16.00;29.10;52.00;;;;;;111466;1237;53930;-59
2023/07/03 11:25:03;;;;;;;;;17.00;15.25;29.10;51.80;;;;;;111276;1243;44674;-61
2023/07/03 11:27:49;;;;;;;;;17.50;16.00;29.10;51.70;;;;;;111377;1237;49311;-60
2023/07/03 11:30:16;;;;;;;;;16.00;15.50;29.10;51.70;;;;;;111386;1242;50006;-59
2023/07/03 11:32:44;;;;;;;;;16.00;15.00;29.20;51.50;;;;;;111465;1243;54455;-59
2023/07/03 11:35:13;;;;;;;;;16.00;15.00;29.30;52.00;;;;;;111518;1237;45022;-61
2023/07/03 11:37:40;;;;;;;;;17.25;16.25;29.20;52.00;;;;;;111437;1243;48889;-60
2023/07/03 11:40:27;;;;;;;;;17.00;16.33;29.30;51.90;;;;;;111420;1243;51340;-61
2023/07/03 11:43:09;;;;;;;;;15.75;14.00;29.30;51.90;;;;;;111490;1237;53516;-60
2023/07/03 11:45:36;;;;;;;;;17.00;16.67;29.30;52.00;;;;;;111475;1242;45141;-59
2023/07/03 11:48:18;;;;;;;;;17.00;16.00;29.30;51.90;;;;;;111563;1242;49506;-60
2023/07/03 11:50:55;;;;;;;;;17.00;14.75;29.30;51.90;;;;;;111475;1237;49896;-59
2023/07/03 11:53:36;;;;;;;;;17.00;16.00;29.30;52.00;;;;;;111436;1240;53740;-59
2023/07/03 11:56:05;;;;;;;;;18.00;17.00;29.30;51.80;;;;;;111564;1237;44872;-59
2023/07/03 11:58:33;;;;;;;;;17.00;16.67;29.30;52.10;;;;;;111509;1238;49446;-59
2023/07/03 12:01:22;;;;;;;;;16.50;15.50;29.30;51.90;;;;;;111290;1241;50155;-60
2023/07/03 12:03:58;;;;;;;;;15.00;14.00;29.30;52.00;;;;;;111408;1240;53270;-59
2023/07/03 12:06:38;;;;;;;;;15.75;13.75;29.30;52.20;;;;;;111844;1240;44252;-60
2023/07/03 12:09:23;;;;;;;;;16.67;16.67;29.20;52.20;;;;;;111491;1237;50070;-59
2023/07/03 12:11:56;;;;;;;;;16.75;16.00;29.30;52.20;;;;;;111483;1243;49551;-60
2023/07/03 12:14:42;;;;;;;;;16.00;15.00;29.30;52.30;;;;;;111448;1237;54209;-58
2023/07/03 12:17:33;;;;;;;;;15.75;15.00;29.30;52.50;;;;;;111490;1238;45632;-60
2023/07/03 12:20:21;;;;;;;;;18.00;15.25;29.30;52.40;;;;;;111538;1238;48976;-61
2023/07/03 12:22:50;;;;;;;;;16.00;14.00;29.30;52.60;;;;;;111593;1243;49035;-60
2023/07/03 12:25:23;;;;;;;;;15.00;14.25;29.30;52.40;;;;;;111389;1243;53918;-60
2023/07/03 12:27:52;;;;;;;;;16.50;15.75;29.30;52.50;;;;;;111338;1243;44925;-59
2023/07/03 12:30:24;;;;;;;;;15.00;15.00;29.30;52.50;;;;;;111394;1238;49680;-60
2023/07/03 12:32:53;;;;;;;;;17.00;16.00;29.30;52.50;;;;;;111549;1242;49503;-60
2023/07/03 12:35:27;;;;;;;;;17.00;16.00;29.30;52.50;;;;;;111426;1243;53441;-59